createdAt,value
2022-10-09T00:00:25.465Z,101487.06
2022-10-09T00:02:52.324Z,101488.69
2022-10-09T00:05:19.288Z,101503.69
2022-10-09T00:07:46.023Z,101500.50
2022-10-09T00:10:12.737Z,101513.94
2022-10-09T00:12:39.493Z,101510.13
2022-10-09T00:15:06.577Z,101520.88
2022-10-09T00:17:33.277Z,101510.66
2022-10-09T00:19:59.928Z,101512.53
2022-10-09T00:22:26.678Z,101511.94
2022-10-09T00:24:53.350Z,101517.19
2022-10-09T00:27:22.841Z,101520.84
2022-10-09T00:29:50.299Z,101524.84
2022-10-09T00:32:17.562Z,101519.69
2022-10-09T00:34:44.473Z,101522.78
2022-10-09T00:37:11.136Z,101524.28
2022-10-09T00:39:37.796Z,101519.44
2022-10-09T00:42:05.389Z,101507.94
2022-10-09T00:45:00.180Z,101509.88
2022-10-09T00:47:33.509Z,101514.97
2022-10-09T00:50:22.940Z,101519.59
2022-10-09T00:52:53.880Z,101515.69
2022-10-09T00:55:22.885Z,101517.06
2022-10-09T00:57:51.388Z,101518.19
2022-10-09T01:00:18.626Z,101520.56
2022-10-09T01:02:45.447Z,101522.63
2022-10-09T01:05:13.790Z,101509.91
2022-10-09T01:07:49.118Z,101498.34
2022-10-09T01:10:54.061Z,101495.16
2022-10-09T01:13:42.725Z,101507.03
2022-10-09T01:16:23.502Z,101502.81
2022-10-09T01:19:12.470Z,101507.34
2022-10-09T01:22:03.359Z,101501.78
2022-10-09T01:24:41.069Z,101498.50
2022-10-09T01:27:25.959Z,101495.16
2022-10-09T01:29:57.302Z,101497.25
2022-10-09T01:32:37.564Z,101499.63
2022-10-09T01:35:06.492Z,101501.75
2022-10-09T01:37:35.408Z,101494.78
2022-10-09T01:40:05.441Z,101489.03
2022-10-09T01:42:32.643Z,101492.09
2022-10-09T01:44:59.387Z,101489.03
2022-10-09T01:47:26.779Z,101496.66
2022-10-09T01:50:07.880Z,101496.97
2022-10-09T01:52:55.029Z,101497.13
2022-10-09T01:55:40.237Z,101508.22
2022-10-09T01:58:23.009Z,101506.06
2022-10-09T02:01:27.049Z,101503.66
2022-10-09T02:03:56.156Z,101503.66
2022-10-09T02:06:23.762Z,101506.53
2022-10-09T02:08:53.525Z,101513.00
2022-10-09T02:11:21.390Z,101504.25
2022-10-09T02:13:52.973Z,101512.19
2022-10-09T02:16:25.380Z,101492.78
2022-10-09T02:19:16.603Z,101502.88
2022-10-09T02:21:51.345Z,101492.69
2022-10-09T02:24:22.892Z,101503.97
2022-10-09T02:26:51.039Z,101509.88
2022-10-09T02:29:17.763Z,101506.91
2022-10-09T02:31:44.883Z,101504.25
2022-10-09T02:34:16.426Z,101504.31
2022-10-09T02:36:43.754Z,101509.00
2022-10-09T02:39:10.505Z,101510.28
2022-10-09T02:41:37.464Z,101496.91
2022-10-09T02:44:04.879Z,101504.38
2022-10-09T02:46:32.096Z,101504.53
2022-10-09T02:48:58.869Z,101502.13
2022-10-09T02:51:26.078Z,101501.53
2022-10-09T02:53:54.022Z,101504.34
2022-10-09T02:56:22.084Z,101500.09
2022-10-09T02:58:49.365Z,101497.59
2022-10-09T03:01:16.297Z,101501.50
2022-10-09T03:03:43.691Z,101504.25
2022-10-09T03:06:21.394Z,101500.19
2022-10-09T03:08:49.792Z,101497.53
2022-10-09T03:11:18.456Z,101504.78
2022-10-09T03:13:45.168Z,101499.28
2022-10-09T03:16:15.222Z,101498.47
2022-10-09T03:18:42.776Z,101496.44
2022-10-09T03:21:12.276Z,101493.09
2022-10-09T03:23:39.302Z,101492.00
2022-10-09T03:26:09.314Z,101483.28
2022-10-09T03:28:39.161Z,101477.63
2022-10-09T03:31:06.957Z,101480.53
2022-10-09T03:33:35.087Z,101482.78
2022-10-09T03:36:02.337Z,101480.88
2022-10-09T03:38:29.136Z,101477.63
2022-10-09T03:40:58.591Z,101472.28
2022-10-09T03:43:25.670Z,101474.97
2022-10-09T03:45:52.877Z,101467.72
2022-10-09T03:48:19.515Z,101467.22
2022-10-09T03:50:46.996Z,101483.03
2022-10-09T03:53:14.461Z,101484.97
2022-10-09T03:55:43.263Z,101483.53
2022-10-09T03:58:10.388Z,101471.13
2022-10-09T04:00:37.336Z,101478.78
2022-10-09T04:03:04.313Z,101486.59
2022-10-09T04:05:35.195Z,101495.38
2022-10-09T04:08:02.000Z,101489.38
2022-10-09T04:10:28.742Z,101494.91
2022-10-09T04:12:55.445Z,101492.34
2022-10-09T04:15:22.262Z,101505.06
2022-10-09T04:17:48.930Z,101499.84
2022-10-09T04:20:15.668Z,101499.94
2022-10-09T04:22:42.381Z,101495.50
2022-10-09T04:25:09.465Z,101499.06
2022-10-09T04:27:36.124Z,101500.22
2022-10-09T04:30:03.506Z,101498.47
2022-10-09T04:32:30.154Z,101490.38
2022-10-09T04:34:56.928Z,101487.69
2022-10-09T04:37:23.575Z,101489.34
2022-10-09T04:39:50.265Z,101484.25
2022-10-09T04:42:16.981Z,101487.97
2022-10-09T04:44:43.719Z,101480.69
2022-10-09T04:47:11.389Z,101482.28
2022-10-09T04:49:38.251Z,101476.03
2022-10-09T04:52:04.936Z,101476.53
2022-10-09T04:54:31.616Z,101469.38
2022-10-09T04:56:58.367Z,101463.34
2022-10-09T04:59:25.102Z,101464.97
2022-10-09T05:01:51.845Z,101460.34
2022-10-09T05:04:18.547Z,101452.25
2022-10-09T05:06:45.188Z,101450.19
2022-10-09T05:09:11.849Z,101470.50
2022-10-09T05:11:42.518Z,101472.06
2022-10-09T05:14:09.873Z,101471.97
2022-10-09T05:17:00.889Z,101470.38
2022-10-09T05:19:23.615Z,101459.19
2022-10-09T05:21:50.310Z,101461.91
2022-10-09T05:24:16.958Z,101465.47
2022-10-09T05:26:43.682Z,101438.38
2022-10-09T05:29:10.402Z,101450.28
2022-10-09T05:31:37.694Z,101438.16
2022-10-09T05:34:04.646Z,101447.91
2022-10-09T05:36:31.420Z,101431.94
2022-10-09T05:38:58.204Z,101437.81
2022-10-09T05:41:27.100Z,101421.41
2022-10-09T05:43:53.976Z,101431.47
2022-10-09T05:46:25.026Z,101434.59
2022-10-09T05:48:55.454Z,101440.00
2022-10-09T05:51:24.261Z,101445.84
2022-10-09T05:53:51.409Z,101423.44
2022-10-09T05:56:20.918Z,101438.56
2022-10-09T05:58:54.024Z,101437.25
2022-10-09T06:01:21.999Z,101431.41
2022-10-09T06:03:53.594Z,101435.41
2022-10-09T06:06:22.169Z,101430.75
2022-10-09T06:08:49.349Z,101437.25
2022-10-09T06:11:18.581Z,101436.34
2022-10-09T06:13:45.766Z,101431.94
2022-10-09T06:16:14.893Z,101428.28
2022-10-09T06:18:48.099Z,101427.06
2022-10-09T06:21:16.396Z,101425.41
2022-10-09T06:23:43.410Z,101416.13
2022-10-09T06:26:12.942Z,101411.03
2022-10-09T06:28:40.452Z,101430.97
2022-10-09T06:31:15.615Z,101412.75
2022-10-09T06:33:44.108Z,101418.34
2022-10-09T06:36:21.871Z,101426.31
2022-10-09T06:38:49.033Z,101422.50
2022-10-09T06:41:22.022Z,101422.50
2022-10-09T06:43:51.236Z,101421.84
2022-10-09T06:46:19.450Z,101423.53
2022-10-09T06:48:46.909Z,101415.03
2022-10-09T06:51:17.432Z,101417.19
2022-10-09T06:53:46.788Z,101420.41
2022-10-09T06:56:14.194Z,101421.22
2022-10-09T06:58:41.780Z,101420.03
2022-10-09T07:01:11.388Z,101417.66
2022-10-09T07:03:39.883Z,101409.63
2022-10-09T07:06:06.467Z,101411.13
2022-10-09T07:08:33.541Z,101409.53
2022-10-09T07:11:00.212Z,101405.44
2022-10-09T07:13:29.290Z,101414.00
2022-10-09T07:15:56.066Z,101415.22
2022-10-09T07:18:22.765Z,101411.16
2022-10-09T07:20:49.533Z,101407.38
2022-10-09T07:23:16.214Z,101409.72
2022-10-09T07:25:42.840Z,101408.47
2022-10-09T07:28:09.561Z,101402.59
2022-10-09T07:30:39.406Z,101407.66
2022-10-09T07:33:06.103Z,101397.97
2022-10-09T07:35:32.800Z,101414.94
2022-10-09T07:37:59.551Z,101407.59
2022-10-09T07:40:26.583Z,101413.41
2022-10-09T07:42:54.591Z,101405.88
2022-10-09T07:45:21.323Z,101400.34
2022-10-09T07:47:48.003Z,101402.38
2022-10-09T07:50:14.701Z,101413.25
2022-10-09T07:52:41.400Z,101411.91
2022-10-09T07:55:08.206Z,101408.56
2022-10-09T07:57:34.889Z,101409.72
2022-10-09T08:00:01.582Z,101415.31
2022-10-09T08:02:28.482Z,101430.09
2022-10-09T08:04:55.216Z,101422.91
2022-10-09T08:07:21.822Z,101440.22
2022-10-09T08:09:48.494Z,101437.94
2022-10-09T08:12:15.143Z,101450.66
2022-10-09T08:14:41.940Z,101445.13
2022-10-09T08:17:08.586Z,101466.28
2022-10-09T08:19:35.231Z,101466.44
2022-10-09T08:22:03.541Z,101491.84
2022-10-09T08:24:30.456Z,101507.44
2022-10-09T08:26:57.091Z,101525.66
2022-10-09T08:29:23.885Z,101544.66
2022-10-09T08:31:51.992Z,101573.09
2022-10-09T08:34:18.578Z,101586.44
2022-10-09T08:36:45.194Z,101617.09
2022-10-09T08:39:11.884Z,101642.19
2022-10-09T08:41:47.070Z,101667.31
2022-10-09T08:44:28.320Z,101684.66
2022-10-09T08:47:14.074Z,101703.44
2022-10-09T08:49:47.324Z,101722.66
2022-10-09T08:52:25.880Z,101750.53
2022-10-09T08:54:56.662Z,101775.41
2022-10-09T08:57:23.575Z,101798.97
2022-10-09T08:59:50.623Z,101831.09
2022-10-09T09:02:41.270Z,101850.09
2022-10-09T09:05:45.474Z,101881.50
2022-10-09T09:08:12.084Z,101923.34
2022-10-09T09:10:51.673Z,101950.28
2022-10-09T09:13:40.625Z,101978.53
2022-10-09T09:16:25.728Z,102012.75
2022-10-09T09:19:20.676Z,102040.09
2022-10-09T09:21:54.019Z,102080.81
2022-10-09T09:24:37.977Z,102098.72
2022-10-09T09:27:11.937Z,102138.78
2022-10-09T09:30:13.335Z,102156.44
2022-10-09T09:32:48.419Z,102168.56
2022-10-09T09:35:47.007Z,102188.13
2022-10-09T09:38:15.217Z,102199.72
2022-10-09T09:40:47.026Z,102212.56
2022-10-09T09:43:19.436Z,102219.00
2022-10-09T09:45:46.890Z,102227.66
2022-10-09T09:48:37.084Z,102245.13
2022-10-09T09:51:27.517Z,102261.06
2022-10-09T09:54:05.233Z,102273.69
2022-10-09T09:57:06.840Z,102285.25
2022-10-09T09:59:32.651Z,102291.88
2022-10-09T10:02:01.749Z,102308.03
2022-10-09T10:04:28.869Z,102306.69
2022-10-09T10:06:55.512Z,102315.50
2022-10-09T10:09:22.238Z,102319.38
2022-10-09T10:11:59.786Z,102332.94
2022-10-09T10:14:27.914Z,102341.63
2022-10-09T10:16:56.800Z,102348.31
2022-10-09T10:19:34.863Z,102350.69
2022-10-09T10:22:04.472Z,102354.56
2022-10-09T10:24:35.583Z,102350.88
2022-10-09T10:27:10.888Z,102352.63
2022-10-09T10:29:42.081Z,102350.00
2022-10-09T10:32:19.355Z,102355.91
2022-10-09T10:34:58.219Z,102360.09
2022-10-09T10:37:33.521Z,102367.66
2022-10-09T10:40:14.324Z,102366.13
2022-10-09T10:42:44.883Z,102364.03
2022-10-09T10:45:35.514Z,102380.97
2022-10-09T10:48:04.028Z,102380.53
2022-10-09T10:50:42.735Z,102368.31
2022-10-09T10:53:38.661Z,102373.19
2022-10-09T10:56:20.839Z,102376.78
2022-10-09T10:59:22.035Z,102374.25
2022-10-09T11:01:57.727Z,102375.81
2022-10-09T11:04:28.609Z,102382.59
2022-10-09T11:07:29.267Z,102376.13
2022-10-09T11:10:08.201Z,102390.28
2022-10-09T11:12:58.860Z,102389.56
2022-10-09T11:15:30.932Z,102392.34
2022-10-09T11:18:03.762Z,102392.22
2022-10-09T11:20:42.387Z,102398.00
2022-10-09T11:23:30.922Z,102400.47
2022-10-09T11:26:25.500Z,102407.81
2022-10-09T11:28:58.371Z,102397.75
2022-10-09T11:31:36.732Z,102405.34
2022-10-09T11:34:12.446Z,102404.69
2022-10-09T11:36:42.764Z,102400.44
2022-10-09T11:39:20.297Z,102389.59
2022-10-09T11:41:49.194Z,102401.88
2022-10-09T11:44:47.505Z,102397.81
2022-10-09T11:47:52.890Z,102383.63
2022-10-09T11:50:47.376Z,102379.13
2022-10-09T11:53:21.139Z,102389.16
2022-10-09T11:55:48.494Z,102384.81
2022-10-09T11:58:25.978Z,102381.44
2022-10-09T12:00:55.613Z,102383.63
2022-10-09T12:03:36.020Z,102378.50
2022-10-09T12:06:17.723Z,102385.72
2022-10-09T12:08:58.704Z,102369.63
2022-10-09T12:11:26.157Z,102378.63
2022-10-09T12:13:58.568Z,102377.00
2022-10-09T12:16:33.520Z,102354.22
2022-10-09T12:19:03.908Z,102364.00
2022-10-09T12:21:56.639Z,102362.16
2022-10-09T12:24:27.913Z,102350.78
2022-10-09T12:26:59.755Z,102352.50
2022-10-09T12:29:32.536Z,102353.13
2022-10-09T12:32:05.326Z,102363.66
2022-10-09T12:34:43.369Z,102378.47
2022-10-09T12:37:18.907Z,102384.13
2022-10-09T12:39:47.431Z,102358.69
2022-10-09T12:42:19.041Z,102347.09
2022-10-09T12:44:46.840Z,102341.56
2022-10-09T12:47:34.974Z,102330.97
2022-10-09T12:50:25.127Z,102335.97
2022-10-09T12:52:55.081Z,102349.50
2022-10-09T12:55:32.536Z,102341.78
2022-10-09T12:58:21.282Z,102341.63
2022-10-09T13:00:55.094Z,102353.78
2022-10-09T13:03:34.946Z,102331.53
2022-10-09T13:06:07.123Z,102317.28
2022-10-09T13:08:37.796Z,102319.09
2022-10-09T13:11:08.884Z,102312.28
2022-10-09T13:13:35.937Z,102292.56
2022-10-09T13:16:09.574Z,102294.66
2022-10-09T13:18:38.301Z,102294.81
2022-10-09T13:21:17.820Z,102304.06
2022-10-09T13:23:44.599Z,102303.44
2022-10-09T13:26:24.174Z,102296.75
2022-10-09T13:28:51.718Z,102285.41
2022-10-09T13:31:19.285Z,102286.50
2022-10-09T13:33:46.668Z,102286.19
2022-10-09T13:36:14.554Z,102283.44
2022-10-09T13:38:41.451Z,102266.00
2022-10-09T13:41:23.759Z,102278.19
2022-10-09T13:43:52.732Z,102268.09
2022-10-09T13:46:19.640Z,102252.72
2022-10-09T13:48:46.616Z,102258.00
2022-10-09T13:51:13.497Z,102245.31
2022-10-09T13:53:40.284Z,102233.47
2022-10-09T13:56:08.587Z,102232.38
2022-10-09T13:58:35.368Z,102235.88
2022-10-09T14:01:02.257Z,102229.63
2022-10-09T14:03:29.127Z,102236.09
2022-10-09T14:06:00.305Z,102229.28
2022-10-09T14:08:27.337Z,102243.44
2022-10-09T14:10:54.588Z,102233.44
2022-10-09T14:13:21.870Z,102245.84
2022-10-09T14:15:49.019Z,102225.56
2022-10-09T14:18:15.658Z,102222.06
2022-10-09T14:20:42.336Z,102205.84
2022-10-09T14:23:09.395Z,102217.47
2022-10-09T14:25:36.194Z,102234.00
2022-10-09T14:28:04.005Z,102218.69
2022-10-09T14:30:31.598Z,102208.81
2022-10-09T14:32:58.429Z,102202.13
2022-10-09T14:35:25.557Z,102214.81
2022-10-09T14:37:52.398Z,102213.81
2022-10-09T14:40:19.256Z,102228.81
2022-10-09T14:42:45.958Z,102226.72
2022-10-09T14:45:12.843Z,102214.44
2022-10-09T14:47:41.685Z,102220.81
2022-10-09T14:50:08.745Z,102240.75
2022-10-09T14:52:35.444Z,102217.88
2022-10-09T14:55:02.266Z,102220.91
2022-10-09T14:57:32.948Z,102196.41
2022-10-09T15:00:02.704Z,102168.81
2022-10-09T15:02:29.556Z,102161.97
2022-10-09T15:04:56.362Z,102179.50
2022-10-09T15:07:23.147Z,102203.06
2022-10-09T15:09:49.876Z,102191.34
2022-10-09T15:12:16.983Z,102182.22
2022-10-09T15:14:43.684Z,102186.41
2022-10-09T15:17:10.475Z,102176.22
2022-10-09T15:19:37.946Z,102188.00
2022-10-09T15:22:04.688Z,102183.31
2022-10-09T15:24:31.395Z,102205.31
2022-10-09T15:27:01.737Z,102213.34
2022-10-09T15:29:28.379Z,102214.31
2022-10-09T15:31:55.107Z,102223.19
2022-10-09T15:34:21.833Z,102227.91
2022-10-09T15:36:48.533Z,102231.91
2022-10-09T15:39:15.988Z,102235.47
2022-10-09T15:41:43.610Z,102231.50
2022-10-09T15:44:19.639Z,102233.06
2022-10-09T15:46:47.804Z,102240.19
2022-10-09T15:49:14.570Z,102234.25
2022-10-09T15:51:41.742Z,102229.56
2022-10-09T15:54:08.575Z,102223.44
2022-10-09T15:56:39.626Z,102227.22
2022-10-09T15:59:07.598Z,102228.72
2022-10-09T16:01:34.429Z,102227.09
2022-10-09T16:04:01.103Z,102222.78
2022-10-09T16:06:27.832Z,102226.66
2022-10-09T16:08:56.873Z,102228.03
2022-10-09T16:11:26.151Z,102229.34
2022-10-09T16:13:54.985Z,102227.84
2022-10-09T16:16:24.560Z,102220.41
2022-10-09T16:18:52.031Z,102222.97
2022-10-09T16:21:27.873Z,102213.88
2022-10-09T16:23:58.789Z,102212.22
2022-10-09T16:26:28.001Z,102218.44
2022-10-09T16:28:54.981Z,102217.63
2022-10-09T16:31:31.480Z,102204.09
2022-10-09T16:33:59.079Z,102209.00
2022-10-09T16:36:27.012Z,102205.66
2022-10-09T16:38:54.246Z,102198.06
2022-10-09T16:41:22.679Z,102204.25
2022-10-09T16:43:52.331Z,102201.50
2022-10-09T16:46:35.601Z,102199.47
2022-10-09T16:49:03.035Z,102198.38
2022-10-09T16:51:36.396Z,102182.53
2022-10-09T16:54:05.475Z,102180.31
2022-10-09T16:56:35.454Z,102172.63
2022-10-09T16:59:06.406Z,102163.81
2022-10-09T17:01:36.102Z,102163.34
2022-10-09T17:04:03.056Z,102145.44
2022-10-09T17:06:30.544Z,102144.56
2022-10-09T17:08:59.218Z,102136.09
2022-10-09T17:11:28.261Z,102126.81
2022-10-09T17:13:57.337Z,102111.28
2022-10-09T17:16:27.802Z,102099.22
2022-10-09T17:18:54.683Z,102095.56
2022-10-09T17:21:21.737Z,102106.88
2022-10-09T17:23:52.472Z,102105.38
2022-10-09T17:26:20.736Z,102096.59
2022-10-09T17:28:48.502Z,102092.47
2022-10-09T17:31:18.315Z,102093.00
2022-10-09T17:33:48.375Z,102094.94
2022-10-09T17:36:21.359Z,102073.66
2022-10-09T17:38:49.183Z,102072.41
2022-10-09T17:41:18.230Z,102068.56
2022-10-09T17:43:45.473Z,102061.69
2022-10-09T17:46:14.794Z,102048.59
2022-10-09T17:48:45.192Z,102046.84
2022-10-09T17:51:17.501Z,102051.31
2022-10-09T17:53:45.595Z,102045.25
2022-10-09T17:56:12.483Z,102036.69
2022-10-09T17:58:39.215Z,102028.63
2022-10-09T18:01:07.789Z,102019.69
2022-10-09T18:03:35.411Z,102014.09
2022-10-09T18:06:06.458Z,102008.84
2022-10-09T18:08:33.733Z,102003.03
2022-10-09T18:11:02.969Z,101991.63
2022-10-09T18:13:30.002Z,101983.78
2022-10-09T18:15:56.793Z,101983.19
2022-10-09T18:18:23.552Z,101974.91
2022-10-09T18:20:50.311Z,101965.47
2022-10-09T18:23:21.808Z,101961.19
2022-10-09T18:25:49.368Z,101950.22
2022-10-09T18:28:16.420Z,101946.13
2022-10-09T18:30:46.144Z,101941.88
2022-10-09T18:33:12.919Z,101927.00
2022-10-09T18:35:40.169Z,101921.75
2022-10-09T18:38:08.281Z,101918.22
2022-10-09T18:40:44.602Z,101913.16
2022-10-09T18:43:12.546Z,101902.25
2022-10-09T18:45:44.626Z,101898.28
2022-10-09T18:48:11.996Z,101894.59
2022-10-09T18:50:38.782Z,101893.28
2022-10-09T18:53:05.756Z,101891.75
2022-10-09T18:55:34.012Z,101885.09
2022-10-09T18:58:03.412Z,101873.91
2022-10-09T19:00:31.023Z,101863.25
2022-10-09T19:02:57.902Z,101856.13
2022-10-09T19:05:24.731Z,101850.38
2022-10-09T19:07:51.984Z,101848.84
2022-10-09T19:10:19.181Z,101838.94
2022-10-09T19:12:46.495Z,101838.84
2022-10-09T19:15:13.297Z,101838.69
2022-10-09T19:17:40.622Z,101832.16
2022-10-09T19:20:07.820Z,101825.78
2022-10-09T19:22:34.638Z,101834.59
2022-10-09T19:25:02.199Z,101827.66
2022-10-09T19:27:29.133Z,101826.44
2022-10-09T19:29:56.085Z,101829.34
2022-10-09T19:32:24.045Z,101826.78
2022-10-09T19:34:51.211Z,101820.00
2022-10-09T19:37:18.550Z,101822.09
2022-10-09T19:39:48.309Z,101822.44
2022-10-09T19:42:16.432Z,101822.25
2022-10-09T19:44:44.320Z,101817.47
2022-10-09T19:47:13.021Z,101817.28
2022-10-09T19:49:40.039Z,101811.75
2022-10-09T19:52:06.873Z,101814.63
2022-10-09T19:54:35.023Z,101810.06
2022-10-09T19:57:02.688Z,101811.13
2022-10-09T19:59:30.775Z,101812.47
2022-10-09T20:01:57.851Z,101820.13
2022-10-09T20:04:24.882Z,101808.47
2022-10-09T20:06:52.103Z,101811.34
2022-10-09T20:09:21.001Z,101809.13
2022-10-09T20:11:48.756Z,101810.53
2022-10-09T20:14:16.227Z,101811.28
2022-10-09T20:16:42.986Z,101807.38
2022-10-09T20:19:09.785Z,101805.72
2022-10-09T20:21:36.744Z,101801.13
2022-10-09T20:24:04.110Z,101786.13
2022-10-09T20:26:33.094Z,101797.25
2022-10-09T20:29:00.253Z,101790.47
2022-10-09T20:31:27.977Z,101796.59
2022-10-09T20:33:55.614Z,101791.97
2022-10-09T20:36:26.312Z,101780.72
2022-10-09T20:38:58.672Z,101767.34
2022-10-09T20:41:27.594Z,101777.41
2022-10-09T20:43:55.653Z,101760.41
2022-10-09T20:46:23.999Z,101769.75
2022-10-09T20:48:52.343Z,101760.97
2022-10-09T20:51:21.177Z,101751.47
2022-10-09T20:53:56.405Z,101738.88
2022-10-09T20:56:26.251Z,101735.16
2022-10-09T20:58:55.030Z,101723.88
2022-10-09T21:01:22.034Z,101716.16
2022-10-09T21:03:49.581Z,101714.69
2022-10-09T21:06:19.076Z,101707.34
2022-10-09T21:08:46.699Z,101703.63
2022-10-09T21:11:18.197Z,101695.63
2022-10-09T21:13:46.651Z,101695.38
2022-10-09T21:16:15.671Z,101692.50
2022-10-09T21:18:42.614Z,101687.97
2022-10-09T21:21:13.071Z,101690.72
2022-10-09T21:23:40.884Z,101695.84
2022-10-09T21:26:16.276Z,101685.63
2022-10-09T21:28:43.858Z,101680.78
2022-10-09T21:31:12.551Z,101679.88
2022-10-09T21:33:39.160Z,101678.19
2022-10-09T21:36:32.497Z,101673.00
2022-10-09T21:38:59.733Z,101667.94
2022-10-09T21:41:27.166Z,101666.97
2022-10-09T21:43:53.852Z,101665.22
2022-10-09T21:46:20.826Z,101669.44
2022-10-09T21:48:47.688Z,101662.59
2022-10-09T21:51:14.576Z,101662.78
2022-10-09T21:53:42.099Z,101655.94
2022-10-09T21:56:09.925Z,101650.69
2022-10-09T21:58:48.098Z,101657.25
2022-10-09T22:01:15.650Z,101648.41
2022-10-09T22:03:42.648Z,101652.59
2022-10-09T22:06:18.435Z,101651.44
2022-10-09T22:08:45.947Z,101650.25
2022-10-09T22:11:12.698Z,101642.50
2022-10-09T22:13:39.840Z,101642.94
2022-10-09T22:16:09.932Z,101635.50
2022-10-09T22:18:37.679Z,101632.16
2022-10-09T22:21:13.029Z,101631.88
2022-10-09T22:23:40.403Z,101627.25
2022-10-09T22:26:17.475Z,101623.06
2022-10-09T22:28:45.350Z,101624.50
2022-10-09T22:31:23.983Z,101618.59
2022-10-09T22:33:58.776Z,101622.09
2022-10-09T22:36:27.916Z,101626.00
2022-10-09T22:38:57.218Z,101620.41
2022-10-09T22:41:25.124Z,101626.06
2022-10-09T22:43:54.861Z,101624.94
2022-10-09T22:46:36.860Z,101613.91
2022-10-09T22:49:04.555Z,101614.44
2022-10-09T22:51:31.376Z,101618.09
2022-10-09T22:53:59.058Z,101610.75
2022-10-09T22:56:36.953Z,101614.25
2022-10-09T22:59:04.744Z,101603.75
2022-10-09T23:01:40.181Z,101602.91
2022-10-09T23:04:17.952Z,101596.25
2022-10-09T23:06:45.780Z,101596.19
2022-10-09T23:09:14.417Z,101584.44
2022-10-09T23:11:42.284Z,101582.19
2022-10-09T23:14:11.146Z,101576.47
2022-10-09T23:16:37.867Z,101576.91
2022-10-09T23:19:07.007Z,101569.81
2022-10-09T23:21:35.714Z,101568.44
2022-10-09T23:24:03.526Z,101562.69
2022-10-09T23:26:32.631Z,101559.78
2022-10-09T23:29:01.826Z,101555.84
2022-10-09T23:31:29.293Z,101557.78
2022-10-09T23:33:57.002Z,101549.03
2022-10-09T23:36:26.404Z,101548.50
2022-10-09T23:38:53.801Z,101557.06
2022-10-09T23:41:23.102Z,101557.31
2022-10-09T23:43:52.337Z,101560.72
2022-10-09T23:46:22.475Z,101556.19
2022-10-09T23:48:50.782Z,101550.91
2022-10-09T23:51:18.566Z,101553.56
2022-10-09T23:53:45.647Z,101550.78
2022-10-09T23:56:33.205Z,101542.28
2022-10-09T23:59:01.299Z,101538.00
